Time;durP1;ratioP1;P1;durP2;ratioP2;P2;SDS_P1;SDS_P2;PMS_P1;PMS_P2;Temp;Humidity;BMP_temperature;BMP_pressure;BME280_temperature;BME280_humidity;BME280_pressure;Samples;Min_cycle;Max_cycle;Signal;HPM_P1;HPM_P2
2021/12/10 00:00:34;;;;;;;;;2.00;2.00;;;;;;;;4980891;28;11567;-81
2021/12/10 00:03:04;;;;;;;;;1.00;1.00;;;;;;;;4968241;28;11488;-83
2021/12/10 00:05:44;;;;;;;;;0.00;0.00;;;;;;;;4981721;28;11521;-82
2021/12/10 00:08:11;;;;;;;;;1.00;1.00;;;;;;;;4984699;28;11606;-80
2021/12/10 00:10:46;;;;;;;;;1.25;0.75;;;;;;;;4976375;28;11499;-82
2021/12/10 00:13:14;;;;;;;;;2.50;1.25;;;;;;;;4970688;28;11508;-81
2021/12/10 00:15:43;;;;;;;;;1.50;1.00;;;;;;;;4980571;28;11497;-79
2021/12/10 00:18:14;;;;;;;;;0.25;0.25;;;;;;;;4985792;28;11508;-79
2021/12/10 00:20:43;;;;;;;;;1.00;1.00;;;;;;;;4986187;28;11484;-80
2021/12/10 00:23:13;;;;;;;;;4.00;2.00;;;;;;;;4983883;28;11711;-78
2021/12/10 00:25:47;;;;;;;;;1.75;1.75;;;;;;;;4985855;28;11507;-82
2021/12/10 00:28:19;;;;;;;;;1.00;1.00;;;;;;;;4973164;28;11581;-79
2021/12/10 00:31:00;;;;;;;;;1.50;0.00;;;;;;;;4982420;28;11442;-80
2021/12/10 00:33:29;;;;;;;;;0.00;0.00;;;;;;;;4980575;28;11486;-80
2021/12/10 00:35:57;;;;;;;;;0.00;0.00;;;;;;;;4978317;28;11502;-80
2021/12/10 00:38:25;;;;;;;;;3.00;1.00;;;;;;;;4975252;28;12390;-81
2021/12/10 00:40:55;;;;;;;;;1.00;1.00;;;;;;;;4967258;28;11608;-80
2021/12/10 00:43:22;;;;;;;;;0.00;0.00;;;;;;;;4982095;28;11626;-80
2021/12/10 00:45:50;;;;;;;;;1.00;1.00;;;;;;;;4976676;28;12264;-80
2021/12/10 00:48:18;;;;;;;;;0.50;0.50;;;;;;;;4976157;28;11511;-80
2021/12/10 00:50:48;;;;;;;;;0.00;0.00;;;;;;;;4978352;28;11502;-80
2021/12/10 00:53:16;;;;;;;;;1.00;1.00;;;;;;;;4983797;28;11593;-79
2021/12/10 00:55:44;;;;;;;;;0.75;0.75;;;;;;;;4979975;28;11493;-79
2021/12/10 00:58:13;;;;;;;;;0.00;0.00;;;;;;;;4971291;28;11519;-78
2021/12/10 01:00:44;;;;;;;;;0.25;0.25;;;;;;;;4977126;28;12284;-80
2021/12/10 01:03:14;;;;;;;;;1.25;0.00;;;;;;;;4971202;28;11515;-79
2021/12/10 01:05:45;;;;;;;;;0.00;0.00;;;;;;;;4977873;28;12528;-79
2021/12/10 01:08:12;;;;;;;;;2.00;0.00;;;;;;;;4977288;28;11515;-80
2021/12/10 01:10:45;;;;;;;;;0.00;0.00;;;;;;;;4978321;28;12312;-78
2021/12/10 01:13:18;;;;;;;;;0.25;0.25;;;;;;;;4985120;28;12231;-81
2021/12/10 01:16:05;;;;;;;;;0.00;0.00;;;;;;;;4982818;28;11676;-81
2021/12/10 01:24:33;;;;;;;;;0.00;0.00;;;;;;;;4990244;28;11508;-81
2021/12/10 01:27:09;;;;;;;;;0.75;0.00;;;;;;;;4974759;28;11545;-81
2021/12/10 01:29:40;;;;;;;;;0.00;0.00;;;;;;;;4985449;28;11516;-81
2021/12/10 01:32:10;;;;;;;;;0.00;0.00;;;;;;;;4978643;28;12291;-81
2021/12/10 01:34:38;;;;;;;;;2.00;0.00;;;;;;;;4980781;28;11469;-81
2021/12/10 01:37:06;;;;;;;;;0.00;0.00;;;;;;;;4981924;28;11515;-81
2021/12/10 01:39:37;;;;;;;;;0.00;0.00;;;;;;;;4984544;28;11496;-81
2021/12/10 01:42:15;;;;;;;;;0.00;0.00;;;;;;;;4981609;28;11630;-80
2021/12/10 01:44:46;;;;;;;;;0.75;0.00;;;;;;;;4967751;28;11531;-80
2021/12/10 01:47:17;;;;;;;;;3.75;1.00;;;;;;;;4979853;28;11634;-81
2021/12/10 01:49:47;;;;;;;;;1.00;1.00;;;;;;;;4975001;28;11648;-81
2021/12/10 01:52:17;;;;;;;;;0.00;0.00;;;;;;;;4983281;28;11548;-81
2021/12/10 01:54:46;;;;;;;;;0.00;0.00;;;;;;;;4976766;28;11516;-80
2021/12/10 01:57:15;;;;;;;;;2.50;2.00;;;;;;;;4989619;28;11608;-80
2021/12/10 01:59:46;;;;;;;;;0.00;0.00;;;;;;;;4984376;28;11541;-79
2021/12/10 02:02:16;;;;;;;;;2.00;0.00;;;;;;;;4973334;28;11479;-80
2021/12/10 02:04:46;;;;;;;;;0.00;0.00;;;;;;;;4979911;28;12385;-80
2021/12/10 02:07:16;;;;;;;;;0.00;0.00;;;;;;;;4986363;28;11504;-81
2021/12/10 02:09:44;;;;;;;;;1.00;0.00;;;;;;;;4985859;28;11502;-80
2021/12/10 02:12:12;;;;;;;;;2.00;0.00;;;;;;;;4974949;28;11493;-81
2021/12/10 02:14:40;;;;;;;;;0.00;0.00;;;;;;;;4978352;28;11622;-79
2021/12/10 02:17:09;;;;;;;;;0.00;0.00;;;;;;;;4982706;28;11630;-80
2021/12/10 02:19:36;;;;;;;;;0.00;0.00;;;;;;;;4979194;28;11594;-80
2021/12/10 02:22:07;;;;;;;;;0.00;0.00;;;;;;;;4988799;28;12276;-79
2021/12/10 02:24:34;;;;;;;;;0.00;0.00;;;;;;;;4988735;28;11490;-78
2021/12/10 02:27:06;;;;;;;;;0.00;0.00;;;;;;;;4983026;28;11542;-79
2021/12/10 02:29:37;;;;;;;;;0.00;0.00;;;;;;;;4988210;28;11528;-79
2021/12/10 02:32:06;;;;;;;;;0.00;0.00;;;;;;;;4975394;28;11445;-79
2021/12/10 02:34:34;;;;;;;;;1.25;0.00;;;;;;;;4977982;28;11523;-79
2021/12/10 02:37:02;;;;;;;;;0.00;0.00;;;;;;;;4986853;28;11666;-79
2021/12/10 02:39:31;;;;;;;;;0.00;0.00;;;;;;;;4984252;28;11520;-79
2021/12/10 02:41:59;;;;;;;;;0.00;0.00;;;;;;;;4988273;28;11485;-79
2021/12/10 02:44:28;;;;;;;;;0.00;0.00;;;;;;;;4995521;28;11499;-79
2021/12/10 02:46:56;;;;;;;;;0.00;0.00;;;;;;;;4985747;28;11497;-80
2021/12/10 02:49:24;;;;;;;;;0.00;0.00;;;;;;;;4988708;28;11529;-81
2021/12/10 02:51:52;;;;;;;;;0.00;0.00;;;;;;;;4978379;28;11558;-80
2021/12/10 02:54:31;;;;;;;;;1.75;0.00;;;;;;;;4990342;28;11503;-80
2021/12/10 02:57:02;;;;;;;;;0.00;0.00;;;;;;;;4977592;28;11527;-80
2021/12/10 02:59:29;;;;;;;;;0.00;0.00;;;;;;;;4976206;28;11599;-79
2021/12/10 03:01:57;;;;;;;;;0.00;0.00;;;;;;;;4983057;28;11457;-81
2021/12/10 03:04:24;;;;;;;;;0.00;0.00;;;;;;;;4984995;28;11512;-80
2021/12/10 03:06:56;;;;;;;;;0.00;0.00;;;;;;;;4983335;28;11605;-80
2021/12/10 03:09:25;;;;;;;;;0.00;0.00;;;;;;;;4977097;28;11536;-80
2021/12/10 03:11:56;;;;;;;;;0.00;0.00;;;;;;;;4971783;28;12412;-80
2021/12/10 03:14:29;;;;;;;;;0.00;0.00;;;;;;;;4983971;28;11527;-79
2021/12/10 03:17:00;;;;;;;;;0.00;0.00;;;;;;;;4974029;28;12297;-79
2021/12/10 03:19:28;;;;;;;;;0.00;0.00;;;;;;;;4977708;28;11498;-80
2021/12/10 03:21:55;;;;;;;;;0.00;0.00;;;;;;;;4984669;28;11510;-80
2021/12/10 03:24:26;;;;;;;;;0.00;0.00;;;;;;;;4986410;28;12271;-80
2021/12/10 03:26:57;;;;;;;;;0.00;0.00;;;;;;;;4983465;28;11541;-79
2021/12/10 03:29:27;;;;;;;;;0.00;0.00;;;;;;;;4981531;28;12202;-80
2021/12/10 03:31:56;;;;;;;;;0.00;0.00;;;;;;;;4973186;28;11498;-80
2021/12/10 03:34:24;;;;;;;;;1.00;0.75;;;;;;;;4976983;28;11553;-80
2021/12/10 03:36:53;;;;;;;;;1.25;0.00;;;;;;;;4967394;28;11666;-80
2021/12/10 03:39:25;;;;;;;;;0.50;0.50;;;;;;;;4984434;28;11522;-80
2021/12/10 03:41:54;;;;;;;;;1.25;0.00;;;;;;;;4988151;28;11504;-79
2021/12/10 03:44:22;;;;;;;;;0.50;0.50;;;;;;;;4966426;28;11513;-80
2021/12/10 03:46:51;;;;;;;;;0.00;0.00;;;;;;;;4971602;28;11562;-80
2021/12/10 03:49:19;;;;;;;;;1.50;0.00;;;;;;;;4977003;28;11557;-80
2021/12/10 03:51:46;;;;;;;;;0.00;0.00;;;;;;;;4983327;28;11644;-80
2021/12/10 03:54:16;;;;;;;;;0.00;0.00;;;;;;;;4975468;28;11590;-80
2021/12/10 03:56:45;;;;;;;;;0.00;0.00;;;;;;;;4980189;28;11518;-80
2021/12/10 03:59:14;;;;;;;;;0.75;0.75;;;;;;;;4982099;28;12220;-80
2021/12/10 04:01:45;;;;;;;;;0.25;0.25;;;;;;;;4967982;28;11607;-80
2021/12/10 04:04:17;;;;;;;;;1.25;1.25;;;;;;;;4980216;28;11712;-80
2021/12/10 04:06:44;;;;;;;;;1.00;1.00;;;;;;;;4972066;28;11632;-79
2021/12/10 04:09:13;;;;;;;;;0.00;0.00;;;;;;;;4985497;28;11518;-80
2021/12/10 04:11:41;;;;;;;;;0.00;0.00;;;;;;;;4987322;28;11500;-80
2021/12/10 04:14:08;;;;;;;;;1.50;0.00;;;;;;;;4974860;28;12447;-80
2021/12/10 04:16:36;;;;;;;;;0.00;0.00;;;;;;;;4985464;28;11618;-80
2021/12/10 04:19:09;;;;;;;;;0.00;0.00;;;;;;;;4979428;28;11535;-80
2021/12/10 04:21:41;;;;;;;;;1.00;1.00;;;;;;;;4978564;28;11542;-81
2021/12/10 04:24:11;;;;;;;;;0.00;0.00;;;;;;;;4983738;28;11583;-81
2021/12/10 04:26:38;;;;;;;;;0.00;0.00;;;;;;;;4974338;28;12304;-80
2021/12/10 04:29:06;;;;;;;;;0.50;0.50;;;;;;;;4978782;28;12299;-81
2021/12/10 04:31:33;;;;;;;;;1.00;0.00;;;;;;;;4982877;28;11445;-80
2021/12/10 04:34:01;;;;;;;;;0.00;0.00;;;;;;;;4982511;28;11612;-78
2021/12/10 04:36:29;;;;;;;;;0.00;0.00;;;;;;;;4981737;28;11516;-79
2021/12/10 04:38:58;;;;;;;;;0.00;0.00;;;;;;;;4980055;28;12352;-79
2021/12/10 04:41:26;;;;;;;;;0.00;0.00;;;;;;;;4980806;28;11492;-79
2021/12/10 04:43:53;;;;;;;;;0.00;0.00;;;;;;;;4981897;28;11516;-79
2021/12/10 04:46:21;;;;;;;;;0.00;0.00;;;;;;;;4985010;28;11486;-79
2021/12/10 04:48:54;;;;;;;;;0.00;0.00;;;;;;;;4973691;28;11549;-81
2021/12/10 04:51:25;;;;;;;;;0.00;0.00;;;;;;;;4971876;28;11654;-80
2021/12/10 04:53:53;;;;;;;;;0.00;0.00;;;;;;;;4974378;28;11562;-79
2021/12/10 04:56:23;;;;;;;;;0.00;0.00;;;;;;;;4980970;28;11538;-78
2021/12/10 04:58:50;;;;;;;;;1.00;1.00;;;;;;;;4982062;28;11563;-78
2021/12/10 05:01:18;;;;;;;;;0.00;0.00;;;;;;;;4978957;28;11483;-79
2021/12/10 05:03:45;;;;;;;;;0.50;0.00;;;;;;;;4978700;28;11519;-79
2021/12/10 05:06:13;;;;;;;;;0.00;0.00;;;;;;;;4982450;28;11605;-79
2021/12/10 05:08:41;;;;;;;;;1.00;1.00;;;;;;;;4984058;28;11613;-79
2021/12/10 05:11:09;;;;;;;;;0.25;0.25;;;;;;;;4983318;28;11530;-78
2021/12/10 05:13:41;;;;;;;;;1.00;1.00;;;;;;;;4980108;28;11616;-78
2021/12/10 05:16:08;;;;;;;;;1.00;1.00;;;;;;;;4976721;28;11534;-79
2021/12/10 05:18:39;;;;;;;;;1.00;1.00;;;;;;;;4968691;28;11629;-79
2021/12/10 05:21:08;;;;;;;;;1.75;1.75;;;;;;;;4967984;28;11547;-80
2021/12/10 05:23:36;;;;;;;;;2.25;1.75;;;;;;;;4984919;28;11496;-78
2021/12/10 05:26:04;;;;;;;;;2.00;2.00;;;;;;;;4979439;28;11560;-77
2021/12/10 05:38:28;;;;;;;;;1.25;1.25;;;;;;;;4846024;29;11704;-82
2021/12/10 05:40:56;;;;;;;;;2.00;2.00;;;;;;;;4869666;28;11295;-77
2021/12/10 05:43:24;;;;;;;;;1.25;1.25;;;;;;;;4967254;28;11606;-79
2021/12/10 05:45:52;;;;;;;;;4.75;4.75;;;;;;;;4969533;28;11273;-80
2021/12/10 05:48:20;;;;;;;;;2.50;2.50;;;;;;;;4964893;28;11649;-78
2021/12/10 05:50:48;;;;;;;;;2.00;2.00;;;;;;;;4973495;28;11519;-78
2021/12/10 05:53:19;;;;;;;;;3.75;1.50;;;;;;;;4973953;28;11530;-81
2021/12/10 05:55:48;;;;;;;;;2.00;2.00;;;;;;;;4964417;28;11380;-79
2021/12/10 05:58:16;;;;;;;;;1.00;1.00;;;;;;;;4968194;28;11343;-79
2021/12/10 06:00:46;;;;;;;;;1.00;1.00;;;;;;;;4965365;28;11148;-79
2021/12/10 06:03:13;;;;;;;;;0.00;0.00;;;;;;;;4973122;28;11096;-78
2021/12/10 06:05:42;;;;;;;;;0.00;0.00;;;;;;;;4970870;28;11135;-80
2021/12/10 06:08:11;;;;;;;;;0.00;0.00;;;;;;;;4971483;28;11151;-81
2021/12/10 06:10:40;;;;;;;;;0.75;0.00;;;;;;;;4969745;28;10937;-80
2021/12/10 06:13:10;;;;;;;;;0.00;0.00;;;;;;;;4966683;28;10841;-79
2021/12/10 06:15:38;;;;;;;;;0.00;0.00;;;;;;;;4969116;28;10920;-78
2021/12/10 06:18:06;;;;;;;;;0.00;0.00;;;;;;;;4973862;28;10850;-78
2021/12/10 06:20:36;;;;;;;;;0.00;0.00;;;;;;;;4973440;28;10936;-80
2021/12/10 06:23:05;;;;;;;;;0.00;0.00;;;;;;;;4973458;28;10770;-78
2021/12/10 06:25:34;;;;;;;;;0.00;0.00;;;;;;;;4970294;28;10801;-77
2021/12/10 06:28:02;;;;;;;;;1.25;0.00;;;;;;;;4969945;28;11890;-79
2021/12/10 06:30:37;;;;;;;;;0.00;0.00;;;;;;;;4966901;28;10732;-78
2021/12/10 06:33:06;;;;;;;;;0.00;0.00;;;;;;;;4968036;28;10953;-77
2021/12/10 06:35:35;;;;;;;;;0.00;0.00;;;;;;;;4969058;28;10716;-77
2021/12/10 06:38:02;;;;;;;;;0.00;0.00;;;;;;;;4981742;28;10824;-77
2021/12/10 06:40:32;;;;;;;;;0.00;0.00;;;;;;;;4980825;28;10792;-79
2021/12/10 06:43:00;;;;;;;;;0.00;0.00;;;;;;;;4970952;28;10777;-80
2021/12/10 06:45:32;;;;;;;;;0.00;0.00;;;;;;;;4968247;28;10810;-80
2021/12/10 06:48:01;;;;;;;;;1.00;0.00;;;;;;;;4982176;28;10700;-79
2021/12/10 06:50:32;;;;;;;;;0.00;0.00;;;;;;;;4985520;28;10677;-79
2021/12/10 06:53:00;;;;;;;;;0.00;0.00;;;;;;;;4986888;28;10790;-80
2021/12/10 06:55:29;;;;;;;;;0.50;0.00;;;;;;;;4947650;28;10857;-79
2021/12/10 06:57:56;;;;;;;;;0.00;0.00;;;;;;;;4948012;28;10822;-79
2021/12/10 07:00:26;;;;;;;;;0.00;0.00;;;;;;;;4936900;28;10842;-80
2021/12/10 07:02:55;;;;;;;;;0.00;0.00;;;;;;;;4933277;28;10931;-79
2021/12/10 07:05:23;;;;;;;;;0.00;0.00;;;;;;;;4944779;28;10718;-79
2021/12/10 07:07:50;;;;;;;;;0.00;0.00;;;;;;;;4931781;28;10842;-79
2021/12/10 07:10:19;;;;;;;;;1.00;0.00;;;;;;;;4939902;28;10831;-79
2021/12/10 07:12:47;;;;;;;;;0.00;0.00;;;;;;;;4944305;28;10675;-80
2021/12/10 07:15:16;;;;;;;;;0.00;0.00;;;;;;;;4921830;28;10670;-79
2021/12/10 07:17:51;;;;;;;;;0.00;0.00;;;;;;;;4952444;28;11485;-80
2021/12/10 07:20:25;;;;;;;;;0.25;0.00;;;;;;;;4950039;28;10750;-80
2021/12/10 07:22:53;;;;;;;;;0.00;0.00;;;;;;;;4936826;28;10950;-80
2021/12/10 07:25:21;;;;;;;;;0.00;0.00;;;;;;;;4947595;28;10826;-78
2021/12/10 07:27:49;;;;;;;;;0.00;0.00;;;;;;;;4942456;28;11476;-80
2021/12/10 07:30:18;;;;;;;;;0.00;0.00;;;;;;;;4951966;28;11658;-84
2021/12/10 07:32:46;;;;;;;;;0.00;0.00;;;;;;;;4942907;28;10746;-81
2021/12/10 07:35:14;;;;;;;;;0.00;0.00;;;;;;;;4937620;28;10798;-82
2021/12/10 07:37:44;;;;;;;;;0.00;0.00;;;;;;;;4939577;28;11633;-80
2021/12/10 07:40:15;;;;;;;;;0.00;0.00;;;;;;;;4948334;28;10832;-81
2021/12/10 07:42:43;;;;;;;;;0.00;0.00;;;;;;;;4941832;28;10887;-82
2021/12/10 07:45:11;;;;;;;;;0.00;0.00;;;;;;;;4951474;28;10899;-84
2021/12/10 07:47:39;;;;;;;;;0.00;0.00;;;;;;;;4947329;28;10861;-80
2021/12/10 07:50:10;;;;;;;;;0.00;0.00;;;;;;;;4954328;28;10804;-80
2021/12/10 07:52:37;;;;;;;;;0.00;0.00;;;;;;;;4950564;28;10917;-82
2021/12/10 07:55:09;;;;;;;;;0.00;0.00;;;;;;;;4973966;28;11840;-83
2021/12/10 07:57:37;;;;;;;;;2.00;0.00;;;;;;;;4983673;28;10872;-81
2021/12/10 08:00:05;;;;;;;;;0.00;0.00;;;;;;;;4978895;28;10887;-81
2021/12/10 08:02:33;;;;;;;;;0.50;0.00;;;;;;;;4986448;28;10864;-82
2021/12/10 08:05:00;;;;;;;;;0.00;0.00;;;;;;;;4985159;28;10909;-82
2021/12/10 08:07:28;;;;;;;;;0.00;0.00;;;;;;;;4985182;28;10923;-78
2021/12/10 08:09:55;;;;;;;;;0.00;0.00;;;;;;;;4980197;28;11032;-81
2021/12/10 08:12:24;;;;;;;;;0.00;0.00;;;;;;;;4979747;28;11050;-80
2021/12/10 08:14:53;;;;;;;;;1.00;0.00;;;;;;;;4983808;28;11026;-80
2021/12/10 08:17:20;;;;;;;;;0.00;0.00;;;;;;;;4974226;28;10886;-85
2021/12/10 08:19:48;;;;;;;;;0.00;0.00;;;;;;;;4978427;28;11001;-80
2021/12/10 08:22:16;;;;;;;;;0.00;0.00;;;;;;;;4976027;28;10945;-81
2021/12/10 08:24:44;;;;;;;;;0.00;0.00;;;;;;;;4976881;28;11022;-81
2021/12/10 08:27:11;;;;;;;;;0.00;0.00;;;;;;;;4984093;28;11035;-90
2021/12/10 08:29:43;;;;;;;;;0.00;0.00;;;;;;;;4982673;28;11117;-86
2021/12/10 08:32:12;;;;;;;;;0.50;0.00;;;;;;;;4978377;28;10869;-88
2021/12/10 08:34:40;;;;;;;;;1.50;0.00;;;;;;;;4987333;28;11068;-89
2021/12/10 08:37:08;;;;;;;;;0.00;0.00;;;;;;;;4961599;28;11857;-84
2021/12/10 08:39:36;;;;;;;;;0.00;0.00;;;;;;;;4985322;28;11077;-82
2021/12/10 08:42:04;;;;;;;;;1.00;1.00;;;;;;;;4983387;28;11094;-82
2021/12/10 08:44:31;;;;;;;;;0.00;0.00;;;;;;;;4984989;28;11103;-85
2021/12/10 08:47:00;;;;;;;;;1.00;1.00;;;;;;;;4984131;28;11005;-86
2021/12/10 08:49:28;;;;;;;;;4.00;1.50;;;;;;;;4984774;28;10983;-80
2021/12/10 08:51:58;;;;;;;;;3.00;1.00;;;;;;;;4993933;28;11050;-84
2021/12/10 08:54:28;;;;;;;;;0.75;0.00;;;;;;;;4971875;28;10939;-82
2021/12/10 08:56:56;;;;;;;;;1.00;1.00;;;;;;;;4982573;28;10857;-81
2021/12/10 08:59:24;;;;;;;;;2.00;1.75;;;;;;;;4983663;28;11049;-83
2021/12/10 09:01:55;;;;;;;;;1.00;1.00;;;;;;;;4986988;28;11797;-80
2021/12/10 09:04:24;;;;;;;;;2.50;1.00;;;;;;;;4984664;28;10962;-79
2021/12/10 09:06:55;;;;;;;;;0.00;0.00;;;;;;;;4973951;28;11290;-77
2021/12/10 09:09:23;;;;;;;;;2.00;1.00;;;;;;;;4985086;28;10865;-84
2021/12/10 09:11:53;;;;;;;;;0.00;0.00;;;;;;;;4984476;28;10983;-79
2021/12/10 09:14:21;;;;;;;;;1.00;1.00;;;;;;;;4980891;28;10906;-82
2021/12/10 09:16:49;;;;;;;;;2.00;1.00;;;;;;;;4973753;28;11064;-82
2021/12/10 09:19:17;;;;;;;;;3.25;1.00;;;;;;;;4976689;28;10943;-83
2021/12/10 09:21:46;;;;;;;;;2.00;0.00;;;;;;;;4984037;28;11059;-84
2021/12/10 09:24:17;;;;;;;;;0.00;0.00;;;;;;;;4978897;28;10939;-87
2021/12/10 09:26:47;;;;;;;;;0.00;0.00;;;;;;;;4976506;28;10874;-82
2021/12/10 09:29:16;;;;;;;;;1.00;1.00;;;;;;;;4972512;28;10767;-82
2021/12/10 09:31:45;;;;;;;;;0.00;0.00;;;;;;;;4972615;28;10852;-81
2021/12/10 09:34:14;;;;;;;;;0.00;0.00;;;;;;;;4981096;28;10795;-80
2021/12/10 09:36:43;;;;;;;;;2.00;0.50;;;;;;;;4983974;28;10791;-81
2021/12/10 09:39:13;;;;;;;;;0.00;0.00;;;;;;;;4972966;28;10818;-82
2021/12/10 09:41:41;;;;;;;;;0.25;0.25;;;;;;;;4983813;28;10820;-82
2021/12/10 09:44:09;;;;;;;;;2.75;0.25;;;;;;;;4992526;28;10831;-81
2021/12/10 09:46:37;;;;;;;;;1.00;1.00;;;;;;;;4983465;28;10742;-84
2021/12/10 09:49:04;;;;;;;;;6.00;1.75;;;;;;;;4980527;28;10847;-80
2021/12/10 09:51:35;;;;;;;;;1.50;1.00;;;;;;;;4980710;28;11671;-79
2021/12/10 09:54:10;;;;;;;;;1.00;1.00;;;;;;;;4983287;28;11380;-82
2021/12/10 09:56:41;;;;;;;;;1.00;1.00;;;;;;;;4971453;28;10804;-82
2021/12/10 09:59:09;;;;;;;;;2.25;1.25;;;;;;;;4985454;28;11561;-82
2021/12/10 10:01:41;;;;;;;;;0.75;0.50;;;;;;;;4983648;28;11068;-82
2021/12/10 10:04:10;;;;;;;;;1.50;0.00;;;;;;;;4983934;28;10860;-84
2021/12/10 10:06:45;;;;;;;;;0.00;0.00;;;;;;;;4985795;28;11066;-83
2021/12/10 10:09:16;;;;;;;;;1.00;1.00;;;;;;;;4990554;28;11032;-82
2021/12/10 10:11:46;;;;;;;;;0.00;0.00;;;;;;;;4966062;28;11059;-83
2021/12/10 10:14:14;;;;;;;;;0.25;0.25;;;;;;;;4980398;28;11045;-83
2021/12/10 10:16:44;;;;;;;;;0.00;0.00;;;;;;;;4987962;28;11012;-78
2021/12/10 10:19:12;;;;;;;;;0.50;0.50;;;;;;;;4976410;28;10946;-81
2021/12/10 10:21:43;;;;;;;;;1.25;1.25;;;;;;;;4988477;28;11155;-82
2021/12/10 10:24:12;;;;;;;;;0.75;0.00;;;;;;;;4984081;28;10988;-80
2021/12/10 10:26:45;;;;;;;;;0.25;0.25;;;;;;;;4983851;28;11121;-81
2021/12/10 10:29:15;;;;;;;;;1.50;1.25;;;;;;;;4989159;28;10905;-82
2021/12/10 10:31:46;;;;;;;;;8.00;1.50;;;;;;;;4974332;28;11075;-82
2021/12/10 10:34:14;;;;;;;;;1.75;1.75;;;;;;;;4982232;28;11268;-83
2021/12/10 10:36:41;;;;;;;;;0.00;0.00;;;;;;;;4967850;28;11175;-82
2021/12/10 10:39:14;;;;;;;;;0.25;0.00;;;;;;;;4977256;28;11291;-81
2021/12/10 10:41:42;;;;;;;;;1.00;1.00;;;;;;;;4990813;28;10965;-83
2021/12/10 10:44:11;;;;;;;;;2.25;0.00;;;;;;;;4989292;28;11025;-81
2021/12/10 10:46:39;;;;;;;;;2.50;1.00;;;;;;;;4985981;28;11132;-83
2021/12/10 10:49:07;;;;;;;;;1.00;1.00;;;;;;;;4988382;28;11017;-83
2021/12/10 10:51:38;;;;;;;;;1.00;1.00;;;;;;;;4989029;28;11036;-82
2021/12/10 10:54:09;;;;;;;;;0.00;0.00;;;;;;;;4987464;28;11000;-83
2021/12/10 10:56:40;;;;;;;;;0.00;0.00;;;;;;;;4979225;28;11293;-81
2021/12/10 10:59:15;;;;;;;;;2.00;0.00;;;;;;;;4992290;28;10940;-83
2021/12/10 11:01:48;;;;;;;;;1.50;0.00;;;;;;;;4975562;28;10725;-83
2021/12/10 11:04:26;;;;;;;;;1.00;1.00;;;;;;;;4989542;28;11673;-84
2021/12/10 11:06:55;;;;;;;;;0.00;0.00;;;;;;;;4978958;28;10814;-80
2021/12/10 11:09:27;;;;;;;;;1.75;0.00;;;;;;;;4986257;28;10809;-81
2021/12/10 11:11:56;;;;;;;;;0.75;0.75;;;;;;;;4988858;28;10798;-82
2021/12/10 11:14:28;;;;;;;;;1.00;1.00;;;;;;;;4973729;28;10823;-83
2021/12/10 11:16:57;;;;;;;;;0.00;0.00;;;;;;;;4984530;28;10843;-84
2021/12/10 11:19:26;;;;;;;;;0.00;0.00;;;;;;;;4988222;28;10788;-83
2021/12/10 11:21:58;;;;;;;;;0.00;0.00;;;;;;;;4989070;28;10909;-82
2021/12/10 11:24:34;;;;;;;;;2.00;0.00;;;;;;;;4987025;28;10630;-83
2021/12/10 11:27:04;;;;;;;;;0.75;0.75;;;;;;;;4992529;28;10804;-83
2021/12/10 11:29:50;;;;;;;;;0.00;0.00;;;;;;;;4992911;28;10702;-81
2021/12/10 11:32:19;;;;;;;;;0.00;0.00;;;;;;;;4987725;28;10583;-84
2021/12/10 11:34:51;;;;;;;;;0.00;0.00;;;;;;;;4988098;28;10493;-81
2021/12/10 11:37:39;;;;;;;;;0.25;0.25;;;;;;;;4975243;28;10511;-81
2021/12/10 11:40:08;;;;;;;;;2.00;0.25;;;;;;;;4998582;28;10400;-81
2021/12/10 11:42:45;;;;;;;;;1.50;0.00;;;;;;;;4978739;28;10547;-82
2021/12/10 11:45:34;;;;;;;;;1.00;0.00;;;;;;;;4995644;28;10413;-83
2021/12/10 11:48:09;;;;;;;;;0.00;0.00;;;;;;;;4982439;28;10408;-82
2021/12/10 11:50:40;;;;;;;;;0.25;0.25;;;;;;;;4985933;28;11335;-85
2021/12/10 11:53:11;;;;;;;;;0.25;0.00;;;;;;;;4986237;28;10431;-84
2021/12/10 11:55:41;;;;;;;;;4.50;1.75;;;;;;;;4986627;28;10400;-85
2021/12/10 11:58:16;;;;;;;;;0.00;0.00;;;;;;;;4987730;28;10657;-84
2021/12/10 12:00:46;;;;;;;;;2.00;0.00;;;;;;;;4987640;28;10348;-80
2021/12/10 12:03:14;;;;;;;;;0.00;0.00;;;;;;;;4986788;28;10648;-84
2021/12/10 12:05:44;;;;;;;;;0.00;0.00;;;;;;;;4988187;28;10676;-86
2021/12/10 12:08:13;;;;;;;;;0.00;0.00;;;;;;;;4974851;28;10657;-83
2021/12/10 12:10:42;;;;;;;;;1.00;1.00;;;;;;;;4986217;28;10559;-85
2021/12/10 12:13:23;;;;;;;;;0.00;0.00;;;;;;;;4996157;28;10497;-81
2021/12/10 12:15:55;;;;;;;;;0.00;0.00;;;;;;;;4973868;28;10502;-83
2021/12/10 12:18:26;;;;;;;;;0.00;0.00;;;;;;;;4967306;28;10545;-82
2021/12/10 12:20:56;;;;;;;;;0.00;0.00;;;;;;;;4984987;28;10529;-81
2021/12/10 12:26:14;;;;;;;;;2.00;0.00;;;;;;;;4976190;28;11186;-81
2021/12/10 12:28:43;;;;;;;;;0.00;0.00;;;;;;;;4986983;28;10708;-82
2021/12/10 12:31:15;;;;;;;;;3.00;0.00;;;;;;;;4987053;28;10597;-82
2021/12/10 12:34:01;;;;;;;;;0.00;0.00;;;;;;;;4986418;28;10558;-84
2021/12/10 12:36:33;;;;;;;;;0.00;0.00;;;;;;;;4986331;28;10714;-81
2021/12/10 12:39:00;;;;;;;;;0.00;0.00;;;;;;;;4974446;28;10678;-80
2021/12/10 12:41:30;;;;;;;;;1.00;1.00;;;;;;;;4986650;28;10753;-83
2021/12/10 12:44:26;;;;;;;;;1.00;0.00;;;;;;;;4983546;28;10737;-79
2021/12/10 12:46:58;;;;;;;;;1.50;0.00;;;;;;;;4985637;28;10731;-81
2021/12/10 12:49:25;;;;;;;;;2.00;0.00;;;;;;;;4987923;28;11494;-83
2021/12/10 12:52:05;;;;;;;;;1.00;1.00;;;;;;;;4986573;28;10824;-83
2021/12/10 12:54:34;;;;;;;;;1.00;1.00;;;;;;;;4984910;28;10806;-85
2021/12/10 12:57:03;;;;;;;;;0.00;0.00;;;;;;;;4977690;28;10813;-81
2021/12/10 12:59:31;;;;;;;;;0.75;0.00;;;;;;;;4986101;28;10646;-81
2021/12/10 13:02:04;;;;;;;;;2.00;0.00;;;;;;;;4986723;28;10762;-82
2021/12/10 13:04:36;;;;;;;;;0.00;0.00;;;;;;;;4985665;28;10687;-83
2021/12/10 13:07:08;;;;;;;;;1.50;0.25;;;;;;;;4987328;28;10736;-86
2021/12/10 13:09:41;;;;;;;;;1.00;1.00;;;;;;;;4986463;28;10707;-83
2021/12/10 13:12:17;;;;;;;;;0.00;0.00;;;;;;;;4985491;28;10643;-85
2021/12/10 13:14:50;;;;;;;;;0.25;0.25;;;;;;;;4979584;28;10687;-82
2021/12/10 13:17:22;;;;;;;;;0.00;0.00;;;;;;;;4970934;28;10643;-83
2021/12/10 13:19:52;;;;;;;;;0.00;0.00;;;;;;;;4974727;28;10715;-83
2021/12/10 13:22:22;;;;;;;;;1.50;1.50;;;;;;;;4986008;28;10582;-83
2021/12/10 13:24:54;;;;;;;;;0.00;0.00;;;;;;;;4993538;28;10793;-86
2021/12/10 13:27:25;;;;;;;;;0.25;0.25;;;;;;;;4983215;28;10653;-83
2021/12/10 13:30:00;;;;;;;;;0.00;0.00;;;;;;;;4984425;28;10651;-80
2021/12/10 13:32:29;;;;;;;;;0.00;0.00;;;;;;;;4983783;28;10760;-84
2021/12/10 13:34:57;;;;;;;;;0.00;0.00;;;;;;;;4967182;28;10766;-83
2021/12/10 13:37:24;;;;;;;;;0.00;0.00;;;;;;;;4971653;28;10733;-85
2021/12/10 13:39:54;;;;;;;;;0.00;0.00;;;;;;;;4997443;28;10576;-84
2021/12/10 13:42:22;;;;;;;;;0.00;0.00;;;;;;;;4996615;28;10569;-81
2021/12/10 13:44:53;;;;;;;;;0.00;0.00;;;;;;;;4950528;28;10655;-86
2021/12/10 13:47:30;;;;;;;;;0.50;0.00;;;;;;;;4985224;28;10566;-84
2021/12/10 13:50:00;;;;;;;;;0.00;0.00;;;;;;;;4983560;28;10637;-84
2021/12/10 13:52:43;;;;;;;;;0.25;0.25;;;;;;;;4993826;28;10628;-80
2021/12/10 13:55:21;;;;;;;;;0.00;0.00;;;;;;;;4982894;28;10569;-86
2021/12/10 13:58:34;;;;;;;;;2.00;0.50;;;;;;;;4982925;28;10648;-84
2021/12/10 14:01:05;;;;;;;;;0.00;0.00;;;;;;;;4984811;28;10706;-83
2021/12/10 14:03:54;;;;;;;;;0.00;0.00;;;;;;;;4990733;28;10653;-85
2021/12/10 14:06:36;;;;;;;;;0.00;0.00;;;;;;;;4993573;28;11382;-82
2021/12/10 14:09:22;;;;;;;;;0.00;0.00;;;;;;;;4987435;28;10690;-82
2021/12/10 14:12:26;;;;;;;;;0.00;0.00;;;;;;;;4986540;28;10648;-85
2021/12/10 14:15:19;;;;;;;;;0.00;0.00;;;;;;;;4983049;28;10829;-83
2021/12/10 14:17:53;;;;;;;;;0.00;0.00;;;;;;;;4985705;28;10712;-81
2021/12/10 14:20:25;;;;;;;;;1.00;0.00;;;;;;;;4986233;28;10780;-85
2021/12/10 14:22:55;;;;;;;;;0.00;0.00;;;;;;;;4977204;28;10955;-85
2021/12/10 14:25:27;;;;;;;;;0.00;0.00;;;;;;;;4979909;28;11648;-84
2021/12/10 14:27:58;;;;;;;;;0.00;0.00;;;;;;;;4975207;28;10946;-82
2021/12/10 14:30:30;;;;;;;;;0.00;0.00;;;;;;;;4981165;28;10852;-80
2021/12/10 14:33:00;;;;;;;;;0.00;0.00;;;;;;;;4976044;28;10946;-81
2021/12/10 14:35:29;;;;;;;;;0.00;0.00;;;;;;;;4967341;28;10991;-83
2021/12/10 14:38:00;;;;;;;;;0.00;0.00;;;;;;;;4967067;28;10953;-86
2021/12/10 14:40:30;;;;;;;;;0.00;0.00;;;;;;;;4975016;28;11043;-83
2021/12/10 14:43:19;;;;;;;;;0.00;0.00;;;;;;;;4986077;28;10957;-85
2021/12/10 14:46:03;;;;;;;;;1.00;0.00;;;;;;;;4984604;28;10970;-82
2021/12/10 14:48:31;;;;;;;;;2.00;0.00;;;;;;;;4982777;28;11713;-85
2021/12/10 14:51:08;;;;;;;;;0.00;0.00;;;;;;;;4985976;28;11064;-80
2021/12/10 14:53:39;;;;;;;;;0.00;0.00;;;;;;;;4985765;28;10875;-82
2021/12/10 14:56:18;;;;;;;;;0.00;0.00;;;;;;;;4984840;28;10989;-85
2021/12/10 14:59:04;;;;;;;;;0.00;0.00;;;;;;;;4985656;28;11151;-86
2021/12/10 15:01:32;;;;;;;;;0.75;0.00;;;;;;;;4984272;28;10999;-82
2021/12/10 15:04:04;;;;;;;;;3.25;0.00;;;;;;;;4992367;28;10916;-82
2021/12/10 15:06:33;;;;;;;;;0.00;0.00;;;;;;;;4991609;28;11047;-82
2021/12/10 15:09:05;;;;;;;;;0.00;0.00;;;;;;;;4970676;28;11092;-84
2021/12/10 15:11:35;;;;;;;;;0.00;0.00;;;;;;;;4987648;28;10988;-83
2021/12/10 15:14:12;;;;;;;;;0.75;0.00;;;;;;;;4981530;28;11774;-83
2021/12/10 15:16:41;;;;;;;;;0.00;0.00;;;;;;;;4988046;28;10971;-84
2021/12/10 15:19:14;;;;;;;;;0.00;0.00;;;;;;;;4987617;28;11093;-83
2021/12/10 15:21:52;;;;;;;;;0.00;0.00;;;;;;;;4988352;28;10886;-82